sensor_id;sensor_type;location;lat;lon;timestamp;temperature;humidity
21353;DHT22;10834;52.268;6.770;2022-12-18T00:00:11;-4.70;99.90
21353;DHT22;10834;52.268;6.770;2022-12-18T00:02:57;-4.70;99.90
21353;DHT22;10834;52.268;6.770;2022-12-18T00:05:48;-4.70;99.90
21353;DHT22;10834;52.268;6.770;2022-12-18T00:08:34;-4.70;99.90
21353;DHT22;10834;52.268;6.770;2022-12-18T00:11:22;-4.70;99.90
21353;DHT22;10834;52.268;6.770;2022-12-18T00:14:12;-4.80;99.90
21353;DHT22;10834;52.268;6.770;2022-12-18T00:16:58;-4.80;99.90
21353;DHT22;10834;52.268;6.770;2022-12-18T00:19:46;-4.80;99.90
21353;DHT22;10834;52.268;6.770;2022-12-18T00:22:32;-4.80;99.90
21353;DHT22;10834;52.268;6.770;2022-12-18T00:25:18;-4.90;99.90
21353;DHT22;10834;52.268;6.770;2022-12-18T00:28:04;-4.90;99.90
21353;DHT22;10834;52.268;6.770;2022-12-18T00:30:58;-5.00;99.90
21353;DHT22;10834;52.268;6.770;2022-12-18T00:33:44;-5.00;99.90
21353;DHT22;10834;52.268;6.770;2022-12-18T00:36:33;-5.00;99.90
21353;DHT22;10834;52.268;6.770;2022-12-18T00:39:20;-5.10;99.90
21353;DHT22;10834;52.268;6.770;2022-12-18T00:42:08;-5.00;99.90
21353;DHT22;10834;52.268;6.770;2022-12-18T00:45:14;-5.10;99.90
21353;DHT22;10834;52.268;6.770;2022-12-18T00:48:00;-5.10;99.90
21353;DHT22;10834;52.268;6.770;2022-12-18T00:50:50;-5.10;99.90
21353;DHT22;10834;52.268;6.770;2022-12-18T00:53:36;-5.10;99.90
21353;DHT22;10834;52.268;6.770;2022-12-18T00:56:22;-5.10;99.90
21353;DHT22;10834;52.268;6.770;2022-12-18T00:59:08;-5.10;99.90
21353;DHT22;10834;52.268;6.770;2022-12-18T01:01:55;-5.10;99.90
21353;DHT22;10834;52.268;6.770;2022-12-18T01:04:41;-5.10;99.90
21353;DHT22;10834;52.268;6.770;2022-12-18T01:07:27;-5.20;99.90
21353;DHT22;10834;52.268;6.770;2022-12-18T01:10:13;-5.20;99.90
21353;DHT22;10834;52.268;6.770;2022-12-18T01:12:59;-5.20;99.90
21353;DHT22;10834;52.268;6.770;2022-12-18T01:15:49;-5.30;99.90
21353;DHT22;10834;52.268;6.770;2022-12-18T01:18:35;-5.30;99.90
21353;DHT22;10834;52.268;6.770;2022-12-18T01:21:23;-5.30;99.90
21353;DHT22;10834;52.268;6.770;2022-12-18T01:24:11;-5.30;99.90
21353;DHT22;10834;52.268;6.770;2022-12-18T01:26:57;-5.20;99.90
21353;DHT22;10834;52.268;6.770;2022-12-18T01:29:44;-5.30;99.90
21353;DHT22;10834;52.268;6.770;2022-12-18T01:32:31;-5.30;99.90
21353;DHT22;10834;52.268;6.770;2022-12-18T01:35:17;-5.30;99.90
21353;DHT22;10834;52.268;6.770;2022-12-18T01:38:03;-5.30;99.90
21353;DHT22;10834;52.268;6.770;2022-12-18T01:41:00;-5.30;99.90
21353;DHT22;10834;52.268;6.770;2022-12-18T01:43:47;-5.30;99.90
21353;DHT22;10834;52.268;6.770;2022-12-18T01:46:33;-5.30;99.90
21353;DHT22;10834;52.268;6.770;2022-12-18T01:49:21;-5.30;99.90
21353;DHT22;10834;52.268;6.770;2022-12-18T01:52:07;-5.30;99.90
21353;DHT22;10834;52.268;6.770;2022-12-18T01:54:53;-5.30;99.90
21353;DHT22;10834;52.268;6.770;2022-12-18T01:57:40;-5.30;99.90
21353;DHT22;10834;52.268;6.770;2022-12-18T02:00:27;-5.30;99.90
21353;DHT22;10834;52.268;6.770;2022-12-18T02:03:13;-5.30;99.90
21353;DHT22;10834;52.268;6.770;2022-12-18T02:06:11;-5.30;99.90
21353;DHT22;10834;52.268;6.770;2022-12-18T02:09:20;-5.30;99.90
21353;DHT22;10834;52.268;6.770;2022-12-18T02:15:41;-5.20;99.90
21353;DHT22;10834;52.268;6.770;2022-12-18T02:18:38;-5.20;99.90
21353;DHT22;10834;52.268;6.770;2022-12-18T02:24:35;-5.20;99.90
21353;DHT22;10834;52.268;6.770;2022-12-18T02:27:29;-5.20;99.90
21353;DHT22;10834;52.268;6.770;2022-12-18T02:30:18;-5.20;99.90
21353;DHT22;10834;52.268;6.770;2022-12-18T02:33:06;-5.20;99.90
21353;DHT22;10834;52.268;6.770;2022-12-18T02:35:54;-5.30;99.90
21353;DHT22;10834;52.268;6.770;2022-12-18T02:38:42;-5.30;99.90
21353;DHT22;10834;52.268;6.770;2022-12-18T02:41:30;-5.30;99.90
21353;DHT22;10834;52.268;6.770;2022-12-18T02:44:16;-5.20;99.90
21353;DHT22;10834;52.268;6.770;2022-12-18T02:47:02;-5.20;99.90
21353;DHT22;10834;52.268;6.770;2022-12-18T02:50:02;-5.30;99.90
21353;DHT22;10834;52.268;6.770;2022-12-18T02:59:31;-5.30;99.90
21353;DHT22;10834;52.268;6.770;2022-12-18T03:02:39;-5.20;99.90
21353;DHT22;10834;52.268;6.770;2022-12-18T03:05:51;-5.20;99.90
21353;DHT22;10834;52.268;6.770;2022-12-18T03:08:42;-5.20;99.90
21353;DHT22;10834;52.268;6.770;2022-12-18T03:11:33;-5.30;99.90
21353;DHT22;10834;52.268;6.770;2022-12-18T03:14:40;-5.30;99.90
21353;DHT22;10834;52.268;6.770;2022-12-18T03:17:29;-5.30;99.90
21353;DHT22;10834;52.268;6.770;2022-12-18T03:20:19;-5.30;99.90
21353;DHT22;10834;52.268;6.770;2022-12-18T03:23:15;-5.30;99.90
21353;DHT22;10834;52.268;6.770;2022-12-18T03:26:06;-5.30;99.90
21353;DHT22;10834;52.268;6.770;2022-12-18T03:28:58;-5.30;99.90
21353;DHT22;10834;52.268;6.770;2022-12-18T03:31:49;-5.30;99.90
21353;DHT22;10834;52.268;6.770;2022-12-18T03:34:38;-5.30;99.90
21353;DHT22;10834;52.268;6.770;2022-12-18T03:37:26;-5.30;99.90
21353;DHT22;10834;52.268;6.770;2022-12-18T03:40:12;-5.30;99.90
21353;DHT22;10834;52.268;6.770;2022-12-18T03:43:03;-5.30;99.90
21353;DHT22;10834;52.268;6.770;2022-12-18T03:45:58;-5.30;99.90
21353;DHT22;10834;52.268;6.770;2022-12-18T03:48:52;-5.30;99.90
21353;DHT22;10834;52.268;6.770;2022-12-18T03:52:12;-5.40;99.90
21353;DHT22;10834;52.268;6.770;2022-12-18T03:54:57;-5.40;99.90
21353;DHT22;10834;52.268;6.770;2022-12-18T03:57:44;-5.40;99.90
21353;DHT22;10834;52.268;6.770;2022-12-18T04:00:32;-5.40;99.90
21353;DHT22;10834;52.268;6.770;2022-12-18T04:03:19;-5.40;99.90
21353;DHT22;10834;52.268;6.770;2022-12-18T04:06:06;-5.40;99.90
21353;DHT22;10834;52.268;6.770;2022-12-18T04:08:53;-5.40;99.90
21353;DHT22;10834;52.268;6.770;2022-12-18T04:11:41;-5.40;99.90
21353;DHT22;10834;52.268;6.770;2022-12-18T04:14:28;-5.40;99.90
21353;DHT22;10834;52.268;6.770;2022-12-18T04:17:14;-5.40;99.90
21353;DHT22;10834;52.268;6.770;2022-12-18T04:20:00;-5.40;99.90
21353;DHT22;10834;52.268;6.770;2022-12-18T04:22:47;-5.40;99.90
21353;DHT22;10834;52.268;6.770;2022-12-18T04:25:33;-5.30;99.90
21353;DHT22;10834;52.268;6.770;2022-12-18T04:28:20;-5.40;99.90
21353;DHT22;10834;52.268;6.770;2022-12-18T04:31:06;-5.30;99.90
21353;DHT22;10834;52.268;6.770;2022-12-18T04:33:52;-5.40;99.90
21353;DHT22;10834;52.268;6.770;2022-12-18T04:36:38;-5.30;99.90
21353;DHT22;10834;52.268;6.770;2022-12-18T04:39:24;-5.30;99.90
21353;DHT22;10834;52.268;6.770;2022-12-18T04:42:10;-5.30;99.90
21353;DHT22;10834;52.268;6.770;2022-12-18T04:44:56;-5.30;99.90
21353;DHT22;10834;52.268;6.770;2022-12-18T04:47:42;-5.30;99.90
21353;DHT22;10834;52.268;6.770;2022-12-18T04:50:29;-5.40;99.90
21353;DHT22;10834;52.268;6.770;2022-12-18T04:53:15;-5.40;99.90
21353;DHT22;10834;52.268;6.770;2022-12-18T04:56:09;-5.40;99.90
21353;DHT22;10834;52.268;6.770;2022-12-18T04:58:56;-5.30;99.90
21353;DHT22;10834;52.268;6.770;2022-12-18T05:01:42;-5.30;99.90
21353;DHT22;10834;52.268;6.770;2022-12-18T05:04:28;-5.30;99.90
21353;DHT22;10834;52.268;6.770;2022-12-18T05:07:14;-5.30;99.90
21353;DHT22;10834;52.268;6.770;2022-12-18T05:10:00;-5.30;99.90
21353;DHT22;10834;52.268;6.770;2022-12-18T05:12:46;-5.30;99.90
21353;DHT22;10834;52.268;6.770;2022-12-18T05:15:51;-5.30;99.90
21353;DHT22;10834;52.268;6.770;2022-12-18T05:18:38;-5.20;99.90
21353;DHT22;10834;52.268;6.770;2022-12-18T05:21:24;-5.30;99.90
21353;DHT22;10834;52.268;6.770;2022-12-18T05:24:10;-5.20;99.90
21353;DHT22;10834;52.268;6.770;2022-12-18T05:26:57;-5.20;99.90
21353;DHT22;10834;52.268;6.770;2022-12-18T05:29:43;-5.20;99.90
21353;DHT22;10834;52.268;6.770;2022-12-18T05:32:29;-5.20;99.90
21353;DHT22;10834;52.268;6.770;2022-12-18T05:35:15;-5.20;99.90
21353;DHT22;10834;52.268;6.770;2022-12-18T05:38:01;-5.20;99.90
21353;DHT22;10834;52.268;6.770;2022-12-18T05:40:48;-5.20;99.90
21353;DHT22;10834;52.268;6.770;2022-12-18T05:43:38;-5.10;99.90
21353;DHT22;10834;52.268;6.770;2022-12-18T05:46:25;-5.10;99.90
21353;DHT22;10834;52.268;6.770;2022-12-18T05:49:11;-5.20;99.90
21353;DHT22;10834;52.268;6.770;2022-12-18T05:51:57;-5.20;99.90
21353;DHT22;10834;52.268;6.770;2022-12-18T05:54:43;-5.20;99.90
21353;DHT22;10834;52.268;6.770;2022-12-18T05:57:29;-5.20;99.90
21353;DHT22;10834;52.268;6.770;2022-12-18T06:00:15;-5.20;99.90
21353;DHT22;10834;52.268;6.770;2022-12-18T06:03:01;-5.20;99.90
21353;DHT22;10834;52.268;6.770;2022-12-18T06:05:48;-5.20;99.90
21353;DHT22;10834;52.268;6.770;2022-12-18T06:08:34;-5.20;99.90
21353;DHT22;10834;52.268;6.770;2022-12-18T06:11:25;-5.20;99.90
21353;DHT22;10834;52.268;6.770;2022-12-18T06:14:11;-5.20;99.90
21353;DHT22;10834;52.268;6.770;2022-12-18T06:16:57;-5.10;99.90
21353;DHT22;10834;52.268;6.770;2022-12-18T06:19:43;-5.10;99.90
21353;DHT22;10834;52.268;6.770;2022-12-18T06:22:31;-5.10;99.90
21353;DHT22;10834;52.268;6.770;2022-12-18T06:25:17;-5.10;99.90
21353;DHT22;10834;52.268;6.770;2022-12-18T06:28:04;-5.10;99.90
21353;DHT22;10834;52.268;6.770;2022-12-18T06:30:50;-5.20;99.90
21353;DHT22;10834;52.268;6.770;2022-12-18T06:33:37;-5.10;99.90
21353;DHT22;10834;52.268;6.770;2022-12-18T06:36:23;-5.20;99.90
21353;DHT22;10834;52.268;6.770;2022-12-18T06:39:09;-5.20;99.90
21353;DHT22;10834;52.268;6.770;2022-12-18T06:41:55;-5.20;99.90
21353;DHT22;10834;52.268;6.770;2022-12-18T06:44:41;-5.20;99.90
21353;DHT22;10834;52.268;6.770;2022-12-18T06:47:28;-5.20;99.90
21353;DHT22;10834;52.268;6.770;2022-12-18T06:50:14;-5.20;99.90
21353;DHT22;10834;52.268;6.770;2022-12-18T06:53:00;-5.20;99.90
21353;DHT22;10834;52.268;6.770;2022-12-18T06:55:46;-5.20;99.90
21353;DHT22;10834;52.268;6.770;2022-12-18T06:58:32;-5.20;99.90
21353;DHT22;10834;52.268;6.770;2022-12-18T07:01:18;-5.20;99.90
21353;DHT22;10834;52.268;6.770;2022-12-18T07:04:04;-5.20;99.90
21353;DHT22;10834;52.268;6.770;2022-12-18T07:06:50;-5.20;99.90
21353;DHT22;10834;52.268;6.770;2022-12-18T07:09:36;-5.20;99.90
21353;DHT22;10834;52.268;6.770;2022-12-18T07:12:22;-5.10;99.90
21353;DHT22;10834;52.268;6.770;2022-12-18T07:15:09;-5.20;99.90
21353;DHT22;10834;52.268;6.770;2022-12-18T07:17:55;-5.20;99.90
21353;DHT22;10834;52.268;6.770;2022-12-18T07:20:41;-5.10;99.90
21353;DHT22;10834;52.268;6.770;2022-12-18T07:23:27;-5.10;99.90
21353;DHT22;10834;52.268;6.770;2022-12-18T07:26:14;-5.10;99.90
21353;DHT22;10834;52.268;6.770;2022-12-18T07:29:01;-5.10;99.90
21353;DHT22;10834;52.268;6.770;2022-12-18T07:31:47;-5.10;99.90
21353;DHT22;10834;52.268;6.770;2022-12-18T07:34:33;-5.10;99.90
21353;DHT22;10834;52.268;6.770;2022-12-18T07:37:19;-5.10;99.90
21353;DHT22;10834;52.268;6.770;2022-12-18T07:40:05;-5.10;99.90
21353;DHT22;10834;52.268;6.770;2022-12-18T07:42:52;-5.10;99.90
21353;DHT22;10834;52.268;6.770;2022-12-18T07:45:38;-5.00;99.90
21353;DHT22;10834;52.268;6.770;2022-12-18T07:48:24;-5.00;99.90
21353;DHT22;10834;52.268;6.770;2022-12-18T07:51:10;-5.00;99.90
21353;DHT22;10834;52.268;6.770;2022-12-18T07:53:56;-4.90;99.90
21353;DHT22;10834;52.268;6.770;2022-12-18T07:56:43;-4.90;99.90
21353;DHT22;10834;52.268;6.770;2022-12-18T07:59:29;-4.80;99.90
21353;DHT22;10834;52.268;6.770;2022-12-18T08:02:15;-4.80;99.90
21353;DHT22;10834;52.268;6.770;2022-12-18T08:05:01;-4.70;99.90
21353;DHT22;10834;52.268;6.770;2022-12-18T08:07:47;-4.60;99.90
21353;DHT22;10834;52.268;6.770;2022-12-18T08:10:33;-4.60;99.90
21353;DHT22;10834;52.268;6.770;2022-12-18T08:13:19;-4.60;99.90
21353;DHT22;10834;52.268;6.770;2022-12-18T08:16:06;-4.50;99.90
21353;DHT22;10834;52.268;6.770;2022-12-18T08:18:53;-4.40;99.90
21353;DHT22;10834;52.268;6.770;2022-12-18T08:21:40;-4.30;99.90
21353;DHT22;10834;52.268;6.770;2022-12-18T08:24:26;-4.30;99.90
21353;DHT22;10834;52.268;6.770;2022-12-18T08:27:12;-4.20;99.90
21353;DHT22;10834;52.268;6.770;2022-12-18T08:29:58;-4.10;99.90
21353;DHT22;10834;52.268;6.770;2022-12-18T08:32:44;-3.90;99.90
21353;DHT22;10834;52.268;6.770;2022-12-18T08:35:34;-3.80;99.90
21353;DHT22;10834;52.268;6.770;2022-12-18T08:38:20;-3.70;99.90
21353;DHT22;10834;52.268;6.770;2022-12-18T08:41:09;-3.60;99.90
21353;DHT22;10834;52.268;6.770;2022-12-18T08:43:55;-3.60;99.90
21353;DHT22;10834;52.268;6.770;2022-12-18T08:47:00;-3.50;99.90
21353;DHT22;10834;52.268;6.770;2022-12-18T08:49:46;-3.50;99.90
21353;DHT22;10834;52.268;6.770;2022-12-18T08:52:32;-3.40;99.90
21353;DHT22;10834;52.268;6.770;2022-12-18T08:55:19;-3.30;99.90
21353;DHT22;10834;52.268;6.770;2022-12-18T08:58:05;-3.30;99.90
21353;DHT22;10834;52.268;6.770;2022-12-18T09:00:51;-3.20;99.90
21353;DHT22;10834;52.268;6.770;2022-12-18T09:03:38;-3.10;99.90
21353;DHT22;10834;52.268;6.770;2022-12-18T09:06:24;-3.10;99.90
21353;DHT22;10834;52.268;6.770;2022-12-18T09:09:12;-3.00;99.90
21353;DHT22;10834;52.268;6.770;2022-12-18T09:11:58;-2.90;99.90
21353;DHT22;10834;52.268;6.770;2022-12-18T09:14:44;-2.70;99.90
21353;DHT22;10834;52.268;6.770;2022-12-18T09:17:30;-2.60;99.90
21353;DHT22;10834;52.268;6.770;2022-12-18T09:20:17;-2.40;99.90
21353;DHT22;10834;52.268;6.770;2022-12-18T09:23:03;-2.40;99.90
21353;DHT22;10834;52.268;6.770;2022-12-18T09:25:49;-2.40;99.90
21353;DHT22;10834;52.268;6.770;2022-12-18T09:28:36;-2.30;99.90
21353;DHT22;10834;52.268;6.770;2022-12-18T09:31:23;-2.10;99.90
21353;DHT22;10834;52.268;6.770;2022-12-18T09:34:10;-1.90;99.90
21353;DHT22;10834;52.268;6.770;2022-12-18T09:36:56;-1.10;99.90
21353;DHT22;10834;52.268;6.770;2022-12-18T09:39:42;-0.40;99.90
21353;DHT22;10834;52.268;6.770;2022-12-18T09:42:28;-0.10;99.90
21353;DHT22;10834;52.268;6.770;2022-12-18T09:45:15;0.40;99.90
21353;DHT22;10834;52.268;6.770;2022-12-18T09:48:04;0.80;99.90
21353;DHT22;10834;52.268;6.770;2022-12-18T09:50:52;1.10;99.90
21353;DHT22;10834;52.268;6.770;2022-12-18T09:53:41;1.20;99.90
21353;DHT22;10834;52.268;6.770;2022-12-18T09:56:35;1.00;99.90
21353;DHT22;10834;52.268;6.770;2022-12-18T09:59:36;0.60;99.90
21353;DHT22;10834;52.268;6.770;2022-12-18T10:02:25;0.40;99.90
21353;DHT22;10834;52.268;6.770;2022-12-18T10:05:14;0.20;99.90
21353;DHT22;10834;52.268;6.770;2022-12-18T10:08:16;0.10;99.90
21353;DHT22;10834;52.268;6.770;2022-12-18T10:11:39;-0.10;99.90
21353;DHT22;10834;52.268;6.770;2022-12-18T10:14:34;-0.20;99.90
21353;DHT22;10834;52.268;6.770;2022-12-18T10:17:51;-0.20;99.90
21353;DHT22;10834;52.268;6.770;2022-12-18T10:20:49;-0.20;99.90
21353;DHT22;10834;52.268;6.770;2022-12-18T10:23:40;-0.20;99.90
21353;DHT22;10834;52.268;6.770;2022-12-18T10:26:28;-0.10;99.90
21353;DHT22;10834;52.268;6.770;2022-12-18T10:29:15;-0.10;99.90
21353;DHT22;10834;52.268;6.770;2022-12-18T10:32:02;0.00;99.90
21353;DHT22;10834;52.268;6.770;2022-12-18T10:34:49;0.10;99.90
21353;DHT22;10834;52.268;6.770;2022-12-18T10:37:36;0.10;99.90
21353;DHT22;10834;52.268;6.770;2022-12-18T10:40:22;0.10;99.90
21353;DHT22;10834;52.268;6.770;2022-12-18T10:43:13;0.10;99.90
21353;DHT22;10834;52.268;6.770;2022-12-18T10:48:56;0.30;99.90
21353;DHT22;10834;52.268;6.770;2022-12-18T10:51:43;0.30;99.90
21353;DHT22;10834;52.268;6.770;2022-12-18T10:54:30;0.40;99.90
21353;DHT22;10834;52.268;6.770;2022-12-18T10:57:31;0.40;99.90
21353;DHT22;10834;52.268;6.770;2022-12-18T11:00:26;0.50;99.90
21353;DHT22;10834;52.268;6.770;2022-12-18T11:03:35;0.50;99.90
21353;DHT22;10834;52.268;6.770;2022-12-18T11:06:24;0.50;99.90
21353;DHT22;10834;52.268;6.770;2022-12-18T11:09:25;0.60;99.90
21353;DHT22;10834;52.268;6.770;2022-12-18T11:12:18;0.60;99.90
21353;DHT22;10834;52.268;6.770;2022-12-18T11:15:04;0.60;99.90
21353;DHT22;10834;52.268;6.770;2022-12-18T11:17:52;0.60;99.90
21353;DHT22;10834;52.268;6.770;2022-12-18T11:20:38;0.60;99.90
21353;DHT22;10834;52.268;6.770;2022-12-18T11:23:26;0.70;99.90
21353;DHT22;10834;52.268;6.770;2022-12-18T11:26:13;0.70;99.90
21353;DHT22;10834;52.268;6.770;2022-12-18T11:29:10;0.70;99.90
21353;DHT22;10834;52.268;6.770;2022-12-18T11:32:37;0.70;99.90
21353;DHT22;10834;52.268;6.770;2022-12-18T11:38:28;0.80;99.90
21353;DHT22;10834;52.268;6.770;2022-12-18T11:44:11;0.80;99.90
21353;DHT22;10834;52.268;6.770;2022-12-18T11:47:11;0.80;99.90
21353;DHT22;10834;52.268;6.770;2022-12-18T11:50:02;0.80;99.90
21353;DHT22;10834;52.268;6.770;2022-12-18T11:52:48;0.80;99.90
21353;DHT22;10834;52.268;6.770;2022-12-18T12:02:09;0.80;99.90
21353;DHT22;10834;52.268;6.770;2022-12-18T12:21:11;0.70;99.90
21353;DHT22;10834;52.268;6.770;2022-12-18T12:27:25;0.70;99.90
21353;DHT22;10834;52.268;6.770;2022-12-18T12:33:18;0.70;99.90
21353;DHT22;10834;52.268;6.770;2022-12-18T12:39:32;0.70;99.90
21353;DHT22;10834;52.268;6.770;2022-12-18T12:42:37;0.70;99.90
21353;DHT22;10834;52.268;6.770;2022-12-18T12:45:53;0.70;99.90
21353;DHT22;10834;52.268;6.770;2022-12-18T12:48:52;0.70;99.90
21353;DHT22;10834;52.268;6.770;2022-12-18T12:51:43;0.70;99.90
21353;DHT22;10834;52.268;6.770;2022-12-18T12:54:31;0.70;99.90
21353;DHT22;10834;52.268;6.770;2022-12-18T12:57:33;0.70;99.90
21353;DHT22;10834;52.268;6.770;2022-12-18T13:00:20;0.70;99.90
21353;DHT22;10834;52.268;6.770;2022-12-18T13:06:14;0.70;99.90
21353;DHT22;10834;52.268;6.770;2022-12-18T13:09:03;0.70;99.90
21353;DHT22;10834;52.268;6.770;2022-12-18T13:11:49;0.60;99.90
21353;DHT22;10834;52.268;6.770;2022-12-18T13:15:12;0.60;99.90
21353;DHT22;10834;52.268;6.770;2022-12-18T13:21:20;0.60;99.90
21353;DHT22;10834;52.268;6.770;2022-12-18T13:24:26;0.60;99.90
21353;DHT22;10834;52.268;6.770;2022-12-18T13:44:52;0.50;99.90
21353;DHT22;10834;52.268;6.770;2022-12-18T13:47:38;0.50;99.90
21353;DHT22;10834;52.268;6.770;2022-12-18T13:50:25;0.50;99.90
21353;DHT22;10834;52.268;6.770;2022-12-18T13:53:53;0.50;99.90
21353;DHT22;10834;52.268;6.770;2022-12-18T13:56:43;0.50;99.90
21353;DHT22;10834;52.268;6.770;2022-12-18T13:59:36;0.40;99.90
21353;DHT22;10834;52.268;6.770;2022-12-18T14:02:26;0.40;99.90
21353;DHT22;10834;52.268;6.770;2022-12-18T14:05:32;0.40;99.90
21353;DHT22;10834;52.268;6.770;2022-12-18T14:08:20;0.40;99.90
21353;DHT22;10834;52.268;6.770;2022-12-18T14:11:07;0.40;99.90
21353;DHT22;10834;52.268;6.770;2022-12-18T14:14:03;0.40;99.90
21353;DHT22;10834;52.268;6.770;2022-12-18T14:16:52;0.40;99.90
21353;DHT22;10834;52.268;6.770;2022-12-18T14:19:47;0.30;99.90
21353;DHT22;10834;52.268;6.770;2022-12-18T14:22:33;0.30;99.90
21353;DHT22;10834;52.268;6.770;2022-12-18T14:25:24;0.30;99.90
21353;DHT22;10834;52.268;6.770;2022-12-18T14:28:14;0.30;99.90
21353;DHT22;10834;52.268;6.770;2022-12-18T14:31:01;0.30;99.90
21353;DHT22;10834;52.268;6.770;2022-12-18T14:33:47;0.30;99.90
21353;DHT22;10834;52.268;6.770;2022-12-18T14:36:33;0.20;99.90
21353;DHT22;10834;52.268;6.770;2022-12-18T14:39:19;0.20;99.90
21353;DHT22;10834;52.268;6.770;2022-12-18T14:42:05;0.20;99.90
21353;DHT22;10834;52.268;6.770;2022-12-18T14:44:51;0.20;99.90
21353;DHT22;10834;52.268;6.770;2022-12-18T14:47:37;0.20;99.90
21353;DHT22;10834;52.268;6.770;2022-12-18T14:50:23;0.20;99.90
21353;DHT22;10834;52.268;6.770;2022-12-18T14:53:20;0.20;99.90
21353;DHT22;10834;52.268;6.770;2022-12-18T14:56:17;0.20;99.90
21353;DHT22;10834;52.268;6.770;2022-12-18T15:05:03;0.20;99.90
21353;DHT22;10834;52.268;6.770;2022-12-18T15:07:51;0.20;99.90
21353;DHT22;10834;52.268;6.770;2022-12-18T15:10:47;0.20;99.90
21353;DHT22;10834;52.268;6.770;2022-12-18T15:13:33;0.20;99.90
21353;DHT22;10834;52.268;6.770;2022-12-18T15:16:19;0.10;99.90
21353;DHT22;10834;52.268;6.770;2022-12-18T15:19:07;0.10;99.90
21353;DHT22;10834;52.268;6.770;2022-12-18T15:21:53;0.10;99.90
21353;DHT22;10834;52.268;6.770;2022-12-18T15:24:39;0.10;99.90
21353;DHT22;10834;52.268;6.770;2022-12-18T15:27:33;0.10;99.90
21353;DHT22;10834;52.268;6.770;2022-12-18T15:30:23;0.10;99.90
21353;DHT22;10834;52.268;6.770;2022-12-18T15:33:32;0.10;99.90
21353;DHT22;10834;52.268;6.770;2022-12-18T15:36:20;0.10;99.90
21353;DHT22;10834;52.268;6.770;2022-12-18T15:39:06;0.10;99.90
21353;DHT22;10834;52.268;6.770;2022-12-18T15:41:56;0.20;99.90
21353;DHT22;10834;52.268;6.770;2022-12-18T15:45:00;0.20;99.90
21353;DHT22;10834;52.268;6.770;2022-12-18T15:47:46;0.10;99.90
21353;DHT22;10834;52.268;6.770;2022-12-18T15:50:32;0.20;99.90
21353;DHT22;10834;52.268;6.770;2022-12-18T15:53:19;0.20;99.90
21353;DHT22;10834;52.268;6.770;2022-12-18T15:56:10;0.20;99.90
21353;DHT22;10834;52.268;6.770;2022-12-18T15:59:17;0.20;99.90
21353;DHT22;10834;52.268;6.770;2022-12-18T16:02:12;0.20;99.90
21353;DHT22;10834;52.268;6.770;2022-12-18T16:05:01;0.20;99.90
21353;DHT22;10834;52.268;6.770;2022-12-18T16:07:47;0.20;99.90
21353;DHT22;10834;52.268;6.770;2022-12-18T16:10:34;0.20;99.90
21353;DHT22;10834;52.268;6.770;2022-12-18T16:13:21;0.30;99.90
21353;DHT22;10834;52.268;6.770;2022-12-18T16:16:08;0.20;99.90
21353;DHT22;10834;52.268;6.770;2022-12-18T16:18:54;0.20;99.90
21353;DHT22;10834;52.268;6.770;2022-12-18T16:21:40;0.30;99.90
21353;DHT22;10834;52.268;6.770;2022-12-18T16:24:28;0.30;99.90
21353;DHT22;10834;52.268;6.770;2022-12-18T16:27:15;0.30;99.90
21353;DHT22;10834;52.268;6.770;2022-12-18T16:30:01;0.20;99.90
21353;DHT22;10834;52.268;6.770;2022-12-18T16:32:47;0.20;99.90
21353;DHT22;10834;52.268;6.770;2022-12-18T16:35:33;0.20;99.90
21353;DHT22;10834;52.268;6.770;2022-12-18T16:38:20;0.20;99.90
21353;DHT22;10834;52.268;6.770;2022-12-18T16:41:24;0.20;99.90
21353;DHT22;10834;52.268;6.770;2022-12-18T16:44:19;0.20;99.90
21353;DHT22;10834;52.268;6.770;2022-12-18T16:47:06;0.20;99.90
21353;DHT22;10834;52.268;6.770;2022-12-18T16:49:52;0.20;99.90
21353;DHT22;10834;52.268;6.770;2022-12-18T16:52:38;0.20;99.90
21353;DHT22;10834;52.268;6.770;2022-12-18T16:55:24;0.20;99.90
21353;DHT22;10834;52.268;6.770;2022-12-18T16:58:10;0.20;99.90
21353;DHT22;10834;52.268;6.770;2022-12-18T17:00:56;0.30;99.90
21353;DHT22;10834;52.268;6.770;2022-12-18T17:03:42;0.20;99.90
21353;DHT22;10834;52.268;6.770;2022-12-18T17:06:31;0.20;99.90
21353;DHT22;10834;52.268;6.770;2022-12-18T17:09:19;0.20;99.90
21353;DHT22;10834;52.268;6.770;2022-12-18T17:12:11;0.20;99.90
21353;DHT22;10834;52.268;6.770;2022-12-18T17:14:57;0.30;99.90
21353;DHT22;10834;52.268;6.770;2022-12-18T17:17:43;0.30;99.90
21353;DHT22;10834;52.268;6.770;2022-12-18T17:20:29;0.30;99.90
21353;DHT22;10834;52.268;6.770;2022-12-18T17:23:15;0.30;99.90
21353;DHT22;10834;52.268;6.770;2022-12-18T17:26:02;0.30;99.90
21353;DHT22;10834;52.268;6.770;2022-12-18T17:28:49;0.30;99.90
21353;DHT22;10834;52.268;6.770;2022-12-18T17:31:35;0.30;99.90
21353;DHT22;10834;52.268;6.770;2022-12-18T17:34:21;0.40;99.90
21353;DHT22;10834;52.268;6.770;2022-12-18T17:37:08;0.40;99.90
21353;DHT22;10834;52.268;6.770;2022-12-18T17:39:54;0.40;99.90
21353;DHT22;10834;52.268;6.770;2022-12-18T17:42:40;0.40;99.90
21353;DHT22;10834;52.268;6.770;2022-12-18T17:45:26;0.50;99.90
21353;DHT22;10834;52.268;6.770;2022-12-18T17:48:12;0.50;99.90
21353;DHT22;10834;52.268;6.770;2022-12-18T17:51:03;0.50;99.90
21353;DHT22;10834;52.268;6.770;2022-12-18T17:53:50;0.60;99.90
21353;DHT22;10834;52.268;6.770;2022-12-18T17:56:37;0.60;99.90
21353;DHT22;10834;52.268;6.770;2022-12-18T17:59:23;0.60;99.90
21353;DHT22;10834;52.268;6.770;2022-12-18T18:02:10;0.60;99.90
21353;DHT22;10834;52.268;6.770;2022-12-18T18:04:56;0.70;99.90
21353;DHT22;10834;52.268;6.770;2022-12-18T18:07:43;0.70;99.90
21353;DHT22;10834;52.268;6.770;2022-12-18T18:10:29;0.70;99.90
21353;DHT22;10834;52.268;6.770;2022-12-18T18:13:21;0.70;99.90
21353;DHT22;10834;52.268;6.770;2022-12-18T18:16:48;0.70;99.90
21353;DHT22;10834;52.268;6.770;2022-12-18T18:19:34;0.70;99.90
21353;DHT22;10834;52.268;6.770;2022-12-18T18:22:20;0.70;99.90
21353;DHT22;10834;52.268;6.770;2022-12-18T18:25:08;0.70;99.90
21353;DHT22;10834;52.268;6.770;2022-12-18T18:27:54;0.70;99.90
21353;DHT22;10834;52.268;6.770;2022-12-18T18:30:40;0.70;99.90
21353;DHT22;10834;52.268;6.770;2022-12-18T18:33:26;0.70;99.90
21353;DHT22;10834;52.268;6.770;2022-12-18T18:36:13;0.70;99.90
21353;DHT22;10834;52.268;6.770;2022-12-18T18:38:59;0.80;99.90
21353;DHT22;10834;52.268;6.770;2022-12-18T18:41:46;0.80;99.90
21353;DHT22;10834;52.268;6.770;2022-12-18T18:44:32;0.80;99.90
21353;DHT22;10834;52.268;6.770;2022-12-18T18:47:18;0.80;99.90
21353;DHT22;10834;52.268;6.770;2022-12-18T18:50:05;0.80;99.90
21353;DHT22;10834;52.268;6.770;2022-12-18T18:52:52;0.80;99.90
21353;DHT22;10834;52.268;6.770;2022-12-18T18:55:38;0.80;99.90
21353;DHT22;10834;52.268;6.770;2022-12-18T18:58:24;0.90;99.90
21353;DHT22;10834;52.268;6.770;2022-12-18T19:01:18;0.90;99.90
21353;DHT22;10834;52.268;6.770;2022-12-18T19:04:04;0.90;99.90
21353;DHT22;10834;52.268;6.770;2022-12-18T19:06:50;1.00;99.90
21353;DHT22;10834;52.268;6.770;2022-12-18T19:09:36;1.00;99.90
21353;DHT22;10834;52.268;6.770;2022-12-18T19:12:22;1.20;99.90
21353;DHT22;10834;52.268;6.770;2022-12-18T19:15:27;1.10;99.90
21353;DHT22;10834;52.268;6.770;2022-12-18T19:18:13;1.10;99.90
21353;DHT22;10834;52.268;6.770;2022-12-18T19:21:05;1.10;99.90